Time;durP1;ratioP1;P1;durP2;ratioP2;P2;SDS_P1;SDS_P2;PMS_P1;PMS_P2;Temp;Humidity;BMP_temperature;BMP_pressure;BME280_temperature;BME280_humidity;BME280_pressure;Samples;Min_cycle;Max_cycle;Signal;HPM_P1;HPM_P2
2021/07/24 00:01:15;;;;;;;14.88;11.57;;;;;;;18.72;98.83;97394.00;5130606;28;20107;-75
2021/07/24 00:03:41;;;;;;;23.40;12.15;;;;;;;18.81;98.23;97403.09;5130471;28;20023;-75
2021/07/24 00:06:07;;;;;;;17.85;11.40;;;;;;;18.76;97.90;97391.84;5113178;28;20107;-74
2021/07/24 00:08:33;;;;;;;20.50;11.07;;;;;;;18.73;98.62;97390.28;5130778;28;20023;-75
2021/07/24 00:11:04;;;;;;;18.35;12.38;;;;;;;18.71;97.54;97386.00;5131348;27;20406;-74
2021/07/24 00:13:30;;;;;;;20.70;11.77;;;;;;;18.81;97.05;97398.53;5134436;27;20043;-74
2021/07/24 00:15:56;;;;;;;15.55;10.40;;;;;;;18.78;98.00;97396.13;5116878;27;20038;-74
2021/07/24 00:18:21;;;;;;;18.63;10.63;;;;;;;18.69;98.69;97388.88;5135709;27;20023;-75
2021/07/24 00:20:47;;;;;;;17.38;10.38;;;;;;;18.69;99.72;97397.00;5135433;27;20038;-74
2021/07/24 00:23:12;;;;;;;13.32;9.77;;;;;;;18.63;100.00;97388.63;5135431;27;20022;-75
2021/07/24 00:25:42;;;;;;;15.32;10.13;;;;;;;18.59;99.69;97390.75;5134367;27;20075;-74
2021/07/24 00:28:08;;;;;;;17.70;10.75;;;;;;;18.45;100.00;97385.81;5132877;27;20019;-75
2021/07/24 00:30:40;;;;;;;14.40;10.23;;;;;;;18.36;100.00;97375.84;5134344;27;20023;-74
2021/07/24 00:33:06;;;;;;;12.52;9.25;;;;;;;18.18;99.22;97367.63;5133971;27;20038;-75
2021/07/24 00:35:35;;;;;;;19.73;9.57;;;;;;;18.25;100.00;97387.69;5117034;27;20027;-75
2021/07/24 00:38:02;;;;;;;13.52;9.65;;;;;;;18.17;99.74;97390.28;5134914;27;20027;-75
2021/07/24 00:40:29;;;;;;;15.45;10.48;;;;;;;18.19;99.11;97382.00;5116753;27;20043;-74
2021/07/24 00:42:56;;;;;;;11.93;9.63;;;;;;;18.11;99.58;97373.78;5133902;27;20446;-75
2021/07/24 00:45:22;;;;;;;17.35;10.48;;;;;;;18.11;99.97;97382.75;5126962;27;20084;-75
2021/07/24 00:47:52;;;;;;;14.68;10.38;;;;;;;18.13;100.00;97386.16;5116680;27;20028;-75
2021/07/24 00:50:18;;;;;;;15.95;10.52;;;;;;;18.13;100.00;97379.91;5133615;27;20057;-74
2021/07/24 00:52:44;;;;;;;16.92;9.93;;;;;;;18.15;100.00;97380.63;5133899;27;20023;-75
2021/07/24 00:55:12;;;;;;;12.32;10.35;;;;;;;18.19;100.00;97368.47;5133821;27;20029;-75
2021/07/24 00:57:40;;;;;;;16.05;10.60;;;;;;;18.15;100.00;97375.22;5133810;27;20088;-74
2021/07/24 01:00:09;;;;;;;21.10;10.77;;;;;;;18.06;100.00;97371.50;5133695;27;20019;-74
2021/07/24 01:02:36;;;;;;;14.23;10.00;;;;;;;18.06;100.00;97368.78;5133775;27;20031;-75
2021/07/24 01:05:03;;;;;;;13.95;10.23;;;;;;;18.07;100.00;97380.47;5133294;27;20110;-76
2021/07/24 01:07:29;;;;;;;14.95;11.15;;;;;;;17.97;100.00;97363.38;5133412;27;20019;-76
2021/07/24 01:09:57;;;;;;;14.40;11.27;;;;;;;17.99;100.00;97381.22;5133474;27;20031;-75
2021/07/24 01:12:23;;;;;;;14.57;10.20;;;;;;;17.92;100.00;97373.81;5133235;27;20034;-76
2021/07/24 01:14:48;;;;;;;13.88;10.98;;;;;;;17.94;100.00;97363.69;5134389;27;20059;-76
2021/07/24 01:17:14;;;;;;;16.75;11.07;;;;;;;17.85;100.00;97366.25;5132983;27;20031;-75
2021/07/24 01:19:39;;;;;;;18.65;10.63;;;;;;;17.90;100.00;97367.69;5133242;27;20027;-75
2021/07/24 01:22:05;;;;;;;16.30;10.77;;;;;;;17.86;100.00;97367.97;5132283;27;20068;-75
2021/07/24 01:24:31;;;;;;;15.52;11.02;;;;;;;17.88;100.00;97371.38;5132789;27;20027;-75
2021/07/24 01:26:56;;;;;;;16.60;11.00;;;;;;;17.90;100.00;97373.09;5133046;27;20031;-75
2021/07/24 01:29:22;;;;;;;14.30;10.60;;;;;;;17.77;100.00;97363.44;5133070;27;20406;-75
2021/07/24 01:31:48;;;;;;;15.18;11.07;;;;;;;17.90;100.00;97373.09;5134172;27;20035;-75
2021/07/24 01:34:14;;;;;;;18.83;11.43;;;;;;;17.65;100.00;97356.47;5134028;27;20027;-75
2021/07/24 01:36:40;;;;;;;67.05;12.70;;;;;;;17.72;100.00;97386.47;5132884;27;20031;-75
2021/07/24 01:39:07;;;;;;;21.15;11.98;;;;;;;17.63;100.00;97373.81;5132802;27;20034;-75
2021/07/24 01:41:32;;;;;;;19.02;10.82;;;;;;;17.68;100.00;97380.53;5115467;27;20027;-75
2021/07/24 01:43:58;;;;;;;18.85;10.20;;;;;;;17.66;100.00;97376.25;5133918;27;20030;-75
2021/07/24 01:46:24;;;;;;;14.95;11.20;;;;;;;17.65;100.00;97370.00;5133741;27;20019;-75
2021/07/24 01:54:39;;;;;;;12.93;10.00;;;;;;;17.60;100.00;97377.66;5125766;27;20057;-75
2021/07/24 01:57:08;;;;;;;15.38;11.20;;;;;;;17.57;100.00;97379.81;5132449;27;20023;-75
2021/07/24 01:59:38;;;;;;;12.90;10.63;;;;;;;17.48;100.00;97383.31;5133597;27;20027;-75
2021/07/24 02:02:04;;;;;;;12.57;10.45;;;;;;;17.21;100.00;97352.44;5132388;27;20027;-74
2021/07/24 02:04:34;;;;;;;17.75;11.68;;;;;;;17.26;100.00;97373.63;5132341;27;20034;-75
2021/07/24 02:06:59;;;;;;;18.30;11.48;;;;;;;17.32;100.00;97389.28;5132583;27;20031;-75
2021/07/24 02:09:25;;;;;;;15.93;12.63;;;;;;;17.26;100.00;97373.63;5132201;27;20087;-75
2021/07/24 02:11:51;;;;;;;20.65;12.30;;;;;;;17.24;100.00;97381.03;5132430;27;20591;-74
2021/07/24 02:14:16;;;;;;;16.33;11.80;;;;;;;17.20;100.00;97391.25;5131961;27;20047;-75
2021/07/24 02:16:42;;;;;;;18.98;11.63;;;;;;;17.20;100.00;97395.81;5132157;27;20034;-75
2021/07/24 02:19:09;;;;;;;21.30;12.10;;;;;;;17.13;100.00;97384.72;5132256;27;20031;-75
2021/07/24 02:21:35;;;;;;;18.38;11.77;;;;;;;17.09;100.00;97383.28;5114903;27;20429;-74
2021/07/24 02:24:00;;;;;;;15.00;10.55;;;;;;;17.06;100.00;97388.97;5114944;27;20039;-75
2021/07/24 02:26:26;;;;;;;20.20;11.07;;;;;;;16.91;100.00;97367.88;5133219;27;20137;-74
2021/07/24 02:28:51;;;;;;;17.52;11.25;;;;;;;16.84;100.00;97372.13;5131970;27;20026;-75
2021/07/24 02:31:17;;;;;;;17.40;10.73;;;;;;;16.77;100.00;97361.00;5133019;27;20410;-75
2021/07/24 02:33:43;;;;;;;18.98;10.70;;;;;;;16.76;100.00;97370.94;5131535;27;20486;-75
2021/07/24 02:36:08;;;;;;;20.20;11.35;;;;;;;16.76;100.00;97376.34;5131565;27;20042;-74
2021/07/24 02:38:34;;;;;;;16.50;11.00;;;;;;;16.70;100.00;97371.50;5131435;27;20031;-74
2021/07/24 02:40:59;;;;;;;18.08;11.10;;;;;;;16.49;100.00;97346.38;5131861;27;20534;-74
2021/07/24 02:43:25;;;;;;;17.70;11.93;;;;;;;16.50;100.00;97366.16;5132764;27;20472;-74
2021/07/24 02:45:51;;;;;;;17.58;11.43;;;;;;;16.61;100.00;97374.19;5131705;27;20029;-75
2021/07/24 02:48:17;;;;;;;33.55;12.40;;;;;;;16.61;100.00;97376.91;5131517;27;20046;-75
2021/07/24 02:50:42;;;;;;;17.40;12.15;;;;;;;16.55;100.00;97364.78;5131736;27;20027;-75
2021/07/24 02:53:08;;;;;;;18.10;11.25;;;;;;;16.63;100.00;97380.31;5132863;27;20458;-74
2021/07/24 02:55:33;;;;;;;17.67;11.38;;;;;;;16.58;100.00;97366.38;5131377;27;20386;-74
2021/07/24 02:57:59;;;;;;;19.10;11.27;;;;;;;16.59;100.00;97373.47;5132506;27;20055;-74
2021/07/24 03:00:24;;;;;;;16.88;12.00;;;;;;;16.55;100.00;97362.06;5132531;27;20084;-75
2021/07/24 03:02:50;;;;;;;21.92;13.10;;;;;;;16.66;100.00;97374.63;5131238;27;20031;-75
2021/07/24 03:05:15;;;;;;;16.13;11.93;;;;;;;16.42;100.00;97364.13;5131394;27;20494;-74
2021/07/24 03:07:41;;;;;;;17.88;12.55;;;;;;;16.47;100.00;97378.06;5130842;27;20054;-76
2021/07/24 03:10:07;;;;;;;17.92;12.10;;;;;;;16.46;100.00;97379.06;5132223;27;20031;-74
2021/07/24 03:12:33;;;;;;;17.40;11.77;;;;;;;16.35;100.00;97364.81;5132332;27;20474;-75
2021/07/24 03:14:58;;;;;;;21.42;11.98;;;;;;;16.40;100.00;97376.91;5130783;27;20046;-75
2021/07/24 03:17:26;;;;;;;21.20;13.27;;;;;;;16.40;100.00;97378.72;5131080;27;20463;-75
2021/07/24 03:19:52;;;;;;;21.85;13.48;;;;;;;16.41;100.00;97375.91;5130800;27;20026;-75
2021/07/24 03:22:17;;;;;;;18.98;11.90;;;;;;;16.40;100.00;97379.59;5131199;27;20500;-75
2021/07/24 03:24:43;;;;;;;19.63;12.07;;;;;;;16.39;100.00;97379.75;5130843;27;20453;-75
2021/07/24 03:27:08;;;;;;;22.63;12.00;;;;;;;16.33;100.00;97373.06;5130910;27;20034;-75
2021/07/24 03:29:34;;;;;;;20.00;12.13;;;;;;;16.32;100.00;97387.53;5132053;27;20015;-75
2021/07/24 03:31:59;;;;;;;14.88;11.27;;;;;;;16.32;100.00;97392.06;5131948;27;20080;-75
2021/07/24 03:34:25;;;;;;;18.60;12.10;;;;;;;16.30;100.00;97386.81;5131110;27;20030;-74
2021/07/24 03:36:50;;;;;;;16.85;11.60;;;;;;;16.34;100.00;97377.44;5113287;27;20031;-73
2021/07/24 03:39:16;;;;;;;15.23;10.70;;;;;;;16.47;100.00;97393.41;5130990;27;20049;-74
2021/07/24 03:41:42;;;;;;;17.17;11.30;;;;;;;16.44;100.00;97383.75;5131740;27;20019;-75
2021/07/24 03:44:07;;;;;;;13.75;10.35;;;;;;;16.50;100.00;97399.41;5131913;27;20023;-74
2021/07/24 03:46:33;;;;;;;14.90;10.93;;;;;;;16.45;100.00;97393.56;5134042;27;20024;-74
2021/07/24 03:48:58;;;;;;;17.85;11.43;;;;;;;16.43;100.00;97384.72;5136013;27;20092;-75
2021/07/24 03:51:24;;;;;;;16.83;11.70;;;;;;;16.53;100.00;97393.75;5134875;27;20031;-74
2021/07/24 03:53:49;;;;;;;15.75;11.27;;;;;;;16.57;100.00;97392.50;5135184;27;20053;-75
2021/07/24 03:56:19;;;;;;;24.50;11.75;;;;;;;16.57;100.00;97392.50;5136173;27;20479;-75
2021/07/24 03:58:46;;;;;;;17.55;11.63;;;;;;;16.69;100.00;97402.22;5134622;27;20455;-75
2021/07/24 04:01:12;;;;;;;16.52;11.95;;;;;;;16.66;100.00;97388.13;5117626;27;20031;-75
2021/07/24 04:03:38;;;;;;;19.48;11.50;;;;;;;16.93;100.00;97406.41;5134644;27;20080;-75
2021/07/24 04:06:06;;;;;;;25.70;12.13;;;;;;;17.00;100.00;97399.47;5117406;27;20019;-75
2021/07/24 04:08:31;;;;;;;18.10;11.57;;;;;;;17.17;100.00;97423.13;5134512;27;20027;-75
2021/07/24 04:10:58;;;;;;;26.15;12.68;;;;;;;17.29;100.00;97411.19;5134644;27;20035;-74
2021/07/24 04:13:23;;;;;;;18.27;12.00;;;;;;;17.32;100.00;97406.38;5135601;27;20019;-75
2021/07/24 04:15:49;;;;;;;15.65;11.63;;;;;;;17.41;100.00;97414.66;5134468;27;20046;-74
2021/07/24 04:18:15;;;;;;;15.50;12.25;;;;;;;17.52;100.00;97419.91;5134380;27;20106;-75
2021/07/24 04:20:41;;;;;;;17.67;11.30;;;;;;;17.64;100.00;97429.63;5134274;27;20498;-75
2021/07/24 04:23:07;;;;;;;18.05;11.75;;;;;;;17.73;100.00;97426.09;5134584;27;20022;-74
2021/07/24 04:25:32;;;;;;;20.92;11.40;;;;;;;17.73;100.00;97418.81;5135618;27;20014;-75
2021/07/24 04:27:58;;;;;;;17.52;12.25;;;;;;;17.86;100.00;97424.81;5133932;27;20020;-75
2021/07/24 04:30:23;;;;;;;15.98;11.85;;;;;;;17.95;100.00;97430.34;5134384;27;20470;-75
2021/07/24 04:32:49;;;;;;;16.27;12.18;;;;;;;18.07;98.98;97431.91;5133958;27;20470;-75
2021/07/24 04:35:18;;;;;;;17.88;12.13;;;;;;;18.09;98.81;97438.88;5116964;27;20463;-75
2021/07/24 04:37:43;;;;;;;16.25;12.23;;;;;;;18.24;97.49;97445.56;5134301;27;20042;-75
2021/07/24 04:40:10;;;;;;;21.05;12.43;;;;;;;19.19;90.94;97446.28;5134073;27;20027;-74
2021/07/24 04:42:35;;;;;;;19.77;11.13;;;;;;;20.57;81.92;97432.22;5135482;27;20023;-75
2021/07/24 04:45:01;;;;;;;19.23;10.90;;;;;;;21.04;78.24;97438.94;5135195;27;20030;-75
2021/07/24 04:47:27;;;;;;;20.88;10.75;;;;;;;20.60;79.12;97434.63;5134148;27;20023;-75
2021/07/24 04:49:53;;;;;;;17.85;11.00;;;;;;;20.25;80.91;97445.53;5135204;27;20534;-75
2021/07/24 04:52:20;;;;;;;25.05;11.77;;;;;;;19.85;83.51;97444.16;5134192;27;20114;-75
2021/07/24 04:54:46;;;;;;;17.15;11.80;;;;;;;19.74;84.18;97425.41;5133565;27;20068;-75
2021/07/24 04:57:12;;;;;;;18.25;11.48;;;;;;;19.82;84.26;97433.59;5133371;27;20531;-75
2021/07/24 04:59:46;;;;;;;16.13;11.95;;;;;;;19.78;84.53;97436.81;5116448;27;20121;-75
2021/07/24 05:02:17;;;;;;;16.98;11.55;;;;;;;19.87;84.88;97444.84;5116791;27;20460;-76
2021/07/24 05:04:43;;;;;;;20.98;11.10;;;;;;;20.12;83.78;97434.22;5133710;27;20023;-75
2021/07/24 05:07:13;;;;;;;18.00;11.20;;;;;;;20.79;79.98;97428.97;5133500;27;20101;-75
2021/07/24 05:09:40;;;;;;;14.50;10.27;;;;;;;22.30;72.25;97427.06;5133483;27;20027;-75
2021/07/24 05:12:06;;;;;;;25.52;10.98;;;;;;;23.09;68.43;97444.34;5133238;27;20023;-75
2021/07/24 05:14:32;;;;;;;18.08;11.02;;;;;;;22.63;70.37;97445.09;5133336;27;20541;-75
2021/07/24 05:17:11;;;;;;;21.90;11.15;;;;;;;21.91;73.78;97449.50;5133095;27;20118;-75
2021/07/24 05:19:41;;;;;;;24.23;13.70;;;;;;;21.75;75.35;97443.97;5133285;27;20050;-80
2021/07/24 05:22:08;;;;;;;27.92;13.60;;;;;;;21.67;76.10;97441.25;5115622;27;20030;-79
2021/07/24 05:24:35;;;;;;;29.13;17.08;;;;;;;21.93;75.41;97442.00;5115783;27;20034;-80
2021/07/24 05:27:01;;;;;;;23.80;17.42;;;;;;;22.64;71.61;97442.16;5134077;27;20386;-78
2021/07/24 05:29:27;;;;;;;22.08;16.38;;;;;;;22.93;69.47;97440.78;5133387;27;20083;-78
2021/07/24 05:31:52;;;;;;;26.27;14.85;;;;;;;22.92;68.88;97444.53;5134566;27;20028;-78
2021/07/24 05:34:18;;;;;;;22.45;12.38;;;;;;;23.30;67.89;97445.59;5135278;27;20034;-83
2021/07/24 05:36:43;;;;;;;22.27;11.18;;;;;;;24.15;64.00;97448.25;5116463;27;20027;-82
2021/07/24 05:39:09;;;;;;;15.05;10.10;;;;;;;24.54;60.87;97452.75;5132342;27;20141;-79
2021/07/24 05:41:34;;;;;;;20.20;9.55;;;;;;;25.40;56.27;97442.09;5131110;27;20456;-79
2021/07/24 05:44:00;;;;;;;13.20;8.88;;;;;;;25.62;54.12;97451.28;5128742;27;20026;-78
2021/07/24 05:46:26;;;;;;;11.13;8.90;;;;;;;26.20;53.30;97459.38;5130147;27;20031;-79
2021/07/24 05:48:51;;;;;;;12.50;8.57;;;;;;;27.68;49.82;97474.75;5112932;27;20448;-78
2021/07/24 05:51:17;;;;;;;17.63;8.90;;;;;;;28.41;47.04;97464.84;5131373;27;20549;-78
2021/07/24 05:53:42;;;;;;;13.25;8.10;;;;;;;27.87;47.62;97467.63;5131758;27;20054;-79
2021/07/24 05:56:08;;;;;;;17.73;9.85;;;;;;;27.04;48.44;97476.81;5130391;27;20506;-78
2021/07/24 05:58:34;;;;;;;16.65;9.50;;;;;;;25.30;53.52;97458.81;5130832;27;20023;-79
2021/07/24 06:00:59;;;;;;;11.43;8.80;;;;;;;24.85;55.29;97463.59;5130115;27;20027;-78
2021/07/24 06:03:25;;;;;;;14.93;9.50;;;;;;;24.90;56.36;97461.16;5113107;27;20401;-78
2021/07/24 06:05:50;;;;;;;16.52;8.82;;;;;;;25.12;55.87;97463.81;5129910;27;20027;-78
2021/07/24 06:08:16;;;;;;;12.88;8.43;;;;;;;25.14;55.42;97469.94;5130980;27;20083;-78
2021/07/24 06:10:42;;;;;;;10.65;8.20;;;;;;;25.72;54.10;97465.50;5129654;27;20019;-78
2021/07/24 06:13:07;;;;;;;19.98;12.02;;;;;;;26.78;51.29;97469.22;5130949;27;20513;-78
2021/07/24 06:15:33;;;;;;;16.33;10.63;;;;;;;27.07;49.88;97478.34;5131443;27;20513;-78
2021/07/24 06:17:58;;;;;;;27.02;9.85;;;;;;;26.59;51.18;97489.09;5130371;27;20035;-79
2021/07/24 06:20:24;;;;;;;14.88;8.98;;;;;;;25.94;51.88;97480.97;5129662;27;20019;-79
2021/07/24 06:22:49;;;;;;;12.95;8.75;;;;;;;24.83;55.53;97476.59;5131005;27;20083;-77
2021/07/24 06:25:15;;;;;;;47.15;11.48;;;;;;;24.30;57.82;97475.69;5129566;27;20556;-77
2021/07/24 06:27:41;;;;;;;26.45;9.88;;;;;;;24.39;57.43;97480.06;5130752;27;20065;-77
2021/07/24 06:30:10;;;;;;;13.80;9.45;;;;;;;23.94;58.93;97483.56;5112121;27;20035;-77
2021/07/24 06:32:36;;;;;;;18.38;10.32;;;;;;;24.01;58.96;97478.22;5129418;27;20023;-77
2021/07/24 06:35:01;;;;;;;34.22;9.63;;;;;;;24.22;59.49;97468.38;5129247;27;20027;-77
2021/07/24 06:37:27;;;;;;;11.73;8.15;;;;;;;24.56;58.64;97478.03;5129206;27;20107;-78
2021/07/24 06:39:54;;;;;;;18.23;8.57;;;;;;;24.89;56.78;97470.41;5129437;27;20398;-77
2021/07/24 06:42:20;;;;;;;16.25;8.40;;;;;;;25.03;56.80;97477.78;5111908;27;20125;-77
2021/07/24 06:44:45;;;;;;;10.70;8.48;;;;;;;25.25;56.17;97485.06;5112115;27;20133;-78
2021/07/24 06:47:12;;;;;;;11.57;8.35;;;;;;;25.88;54.61;97489.97;5130239;27;20026;-78
2021/07/24 06:49:38;;;;;;;14.10;9.05;;;;;;;26.95;50.09;97469.78;5129242;27;20091;-77
2021/07/24 06:52:04;;;;;;;35.50;10.18;;;;;;;27.50;48.83;97493.69;5129147;27;20443;-77
2021/07/24 06:54:29;;;;;;;11.57;7.57;;;;;;;27.23;49.61;97489.84;5129328;27;20045;-77
2021/07/24 06:56:55;;;;;;;20.52;10.32;;;;;;;27.26;49.48;97481.22;5128991;27;20064;-77
2021/07/24 06:59:20;;;;;;;16.95;8.10;;;;;;;27.09;48.84;97479.84;5128721;27;20023;-77
2021/07/24 07:01:46;;;;;;;13.93;7.97;;;;;;;27.00;48.77;97489.28;5130372;27;20031;-77
2021/07/24 07:04:11;;;;;;;10.70;7.93;;;;;;;26.65;48.88;97481.97;5129329;27;20035;-77
2021/07/24 07:06:40;;;;;;;10.77;7.90;;;;;;;26.08;50.21;97482.84;5128838;27;20023;-77
2021/07/24 07:09:06;;;;;;;13.48;8.00;;;;;;;25.71;51.77;97483.00;5128872;27;20031;-77
2021/07/24 07:11:33;;;;;;;15.82;8.07;;;;;;;25.76;52.03;97481.38;5130096;27;20030;-77
2021/07/24 07:13:58;;;;;;;13.30;7.45;;;;;;;26.16;50.50;97482.75;5128796;27;20062;-77
2021/07/24 07:16:24;;;;;;;13.32;7.63;;;;;;;25.80;51.05;97476.38;5128579;27;20019;-77
2021/07/24 07:18:50;;;;;;;17.95;9.05;;;;;;;25.75;51.82;97484.31;5128973;27;20045;-77
2021/07/24 07:21:15;;;;;;;12.77;8.68;;;;;;;26.16;49.45;97477.25;5131022;27;20443;-77
2021/07/24 07:23:41;;;;;;;82.15;8.75;;;;;;;26.40;48.66;97485.09;5131612;27;20023;-76
2021/07/24 07:26:06;;;;;;;20.25;7.75;;;;;;;26.62;48.58;97479.59;5131177;27;20474;-77
2021/07/24 07:28:32;;;;;;;17.38;7.75;;;;;;;26.46;50.39;97491.69;5130879;27;20023;-77
2021/07/24 07:30:58;;;;;;;12.10;8.25;;;;;;;26.25;51.60;97491.69;5132394;27;20539;-77
2021/07/24 07:33:23;;;;;;;16.15;9.18;;;;;;;26.17;52.31;97491.81;5131167;27;20056;-77
2021/07/24 07:35:49;;;;;;;450.92;29.23;;;;;;;26.14;51.28;97494.91;5132151;27;20034;-78
2021/07/24 07:38:15;;;;;;;49.55;9.43;;;;;;;25.80;50.97;97481.84;5127936;27;20105;-77
2021/07/24 07:40:41;;;;;;;17.63;7.72;;;;;;;25.79;50.39;97496.59;5128581;27;20089;-77
2021/07/24 07:43:16;;;;;;;11.15;6.82;;;;;;;25.92;50.10;97507.72;5128003;28;20055;-77
2021/07/24 07:45:41;;;;;;;13.43;7.22;;;;;;;25.70;51.46;97503.22;5123589;28;20038;-77
2021/07/24 07:48:07;;;;;;;13.70;6.25;;;;;;;25.68;50.77;97516.28;5128546;28;20110;-77
2021/07/24 07:50:33;;;;;;;13.77;7.95;;;;;;;25.37;52.50;97507.38;5111017;28;20034;-77
2021/07/24 07:52:59;;;;;;;18.17;9.65;;;;;;;25.17;53.43;97518.00;5128534;28;20023;-77
2021/07/24 07:55:25;;;;;;;28.73;9.32;;;;;;;24.91;55.04;97509.38;5129127;27;20027;-77
2021/07/24 07:57:50;;;;;;;23.10;9.02;;;;;;;24.68;53.75;97512.13;5129340;27;20031;-77
2021/07/24 08:00:16;;;;;;;33.10;8.90;;;;;;;24.86;54.59;97507.19;5110929;28;20026;-77
2021/07/24 08:02:42;;;;;;;15.90;8.80;;;;;;;24.93;54.16;97510.91;5129625;27;20076;-77
2021/07/24 08:05:08;;;;;;;12.50;7.57;;;;;;;24.96;53.03;97518.72;5128559;28;20031;-77
2021/07/24 08:07:33;;;;;;;13.77;7.50;;;;;;;25.18;53.03;97520.56;5129835;27;20109;-77
2021/07/24 08:09:59;;;;;;;13.15;7.50;;;;;;;25.41;51.92;97515.00;5128181;28;20027;-77
2021/07/24 08:12:25;;;;;;;14.02;8.02;;;;;;;25.60;52.87;97521.84;5127889;27;20390;-77
2021/07/24 08:14:51;;;;;;;14.20;6.75;;;;;;;25.63;52.51;97526.94;5110916;28;20051;-77
2021/07/24 08:17:19;;;;;;;10.43;7.03;;;;;;;25.68;51.60;97522.63;5128102;28;20023;-77
2021/07/24 08:19:44;;;;;;;14.23;7.55;;;;;;;26.66;50.39;97538.56;5128207;28;20501;-77
2021/07/24 08:22:10;;;;;;;9.70;6.63;;;;;;;28.81;44.58;97518.09;5129037;27;20031;-78
2021/07/24 08:24:35;;;;;;;11.02;6.85;;;;;;;29.72;42.69;97538.44;5110984;28;20031;-78
2021/07/24 08:27:01;;;;;;;11.30;7.32;;;;;;;31.07;39.79;97533.59;5129675;27;20022;-78
2021/07/24 08:29:26;;;;;;;12.30;7.47;;;;;;;31.86;38.29;97538.41;5127894;28;20087;-78
2021/07/24 08:31:52;;;;;;;23.35;9.55;;;;;;;32.62;37.84;97539.63;5128994;27;20038;-78
2021/07/24 08:34:18;;;;;;;15.98;9.60;;;;;;;33.78;35.59;97539.03;5133131;27;20042;-78
2021/07/24 08:36:43;;;;;;;15.90;11.00;;;;;;;32.84;36.48;97539.09;5132771;27;20061;-78
2021/07/24 08:39:09;;;;;;;11.30;7.65;;;;;;;32.53;37.03;97537.38;5131614;27;20383;-78
2021/07/24 08:41:39;;;;;;;12.25;7.72;;;;;;;32.15;38.17;97544.03;5131900;27;20487;-77
2021/07/24 08:44:04;;;;;;;8.80;6.90;;;;;;;32.17;38.70;97543.81;5131698;27;20088;-78
2021/07/24 08:46:31;;;;;;;13.85;6.10;;;;;;;34.22;35.66;97543.97;5131044;27;20482;-78
2021/07/24 08:48:57;;;;;;;10.52;6.20;;;;;;;36.14;32.19;97524.41;5131692;27;20027;-78
2021/07/24 08:51:23;;;;;;;11.52;6.10;;;;;;;36.85;30.90;97526.13;5131517;27;20076;-77
2021/07/24 08:53:48;;;;;;;20.30;6.75;;;;;;;37.12;31.40;97528.94;5131684;27;20027;-77
2021/07/24 08:56:22;;;;;;;14.75;6.30;;;;;;;35.95;31.73;97525.75;5131512;27;20026;-77
2021/07/24 08:58:51;;;;;;;23.63;6.53;;;;;;;34.93;32.16;97530.69;5131657;27;20502;-76
2021/07/24 09:01:18;;;;;;;67.20;9.77;;;;;;;33.82;33.88;97536.63;5132002;27;20073;-75
2021/07/24 09:03:44;;;;;;;16.35;6.88;;;;;;;32.72;36.86;97547.38;5131065;27;20019;-75
2021/07/24 09:06:10;;;;;;;19.00;6.95;;;;;;;32.50;37.80;97565.56;5130930;27;20075;-76
2021/07/24 09:08:36;;;;;;;8.52;6.40;;;;;;;32.62;37.38;97555.41;5130933;27;20027;-75
2021/07/24 09:11:03;;;;;;;8.88;6.90;;;;;;;32.74;37.56;97562.69;5113740;27;20030;-75
2021/07/24 09:13:29;;;;;;;9.30;7.00;;;;;;;32.12;38.27;97558.34;5132008;27;20100;-75
2021/07/24 09:15:55;;;;;;;11.88;7.00;;;;;;;32.42;37.99;97555.66;5131001;27;20031;-75
2021/07/24 09:18:23;;;;;;;10.20;6.80;;;;;;;32.03;38.85;97548.66;5131259;27;20494;-75
2021/07/24 09:20:49;;;;;;;9.23;6.75;;;;;;;32.37;38.57;97552.72;5130724;27;20476;-75
2021/07/24 09:23:40;;;;;;;9.10;7.25;;;;;;;32.67;38.17;97550.84;5130971;27;20478;-75
2021/07/24 09:26:06;;;;;;;10.85;7.00;;;;;;;33.16;37.22;97555.25;5130947;27;20073;-75
2021/07/24 09:28:35;;;;;;;15.30;7.75;;;;;;;32.65;37.75;97555.78;5130598;27;20027;-76
2021/07/24 09:31:21;;;;;;;15.02;7.20;;;;;;;33.38;36.48;97555.53;5123849;27;20027;-75
2021/07/24 09:33:51;;;;;;;13.48;6.75;;;;;;;34.85;34.96;97548.63;5111422;27;20509;-75
2021/07/24 09:36:36;;;;;;;9.30;7.63;;;;;;;35.58;33.14;97542.19;5129818;27;20031;-75
2021/07/24 09:39:14;;;;;;;20.33;7.68;;;;;;;37.55;29.40;97537.19;5126438;27;20045;-76
2021/07/24 09:41:44;;;;;;;12.88;7.80;;;;;;;34.82;32.51;97532.44;5133074;27;20031;-75
2021/07/24 09:44:10;;;;;;;10.82;7.05;;;;;;;34.43;33.85;97539.69;5133586;27;20027;-75
2021/07/24 09:46:36;;;;;;;10.27;7.05;;;;;;;34.73;33.36;97532.00;5132933;27;20019;-75
2021/07/24 09:49:14;;;;;;;12.85;7.20;;;;;;;34.24;33.80;97543.75;5133063;27;20053;-75
2021/07/24 09:51:45;;;;;;;15.80;7.40;;;;;;;33.65;35.16;97537.38;5132857;27;20034;-75
2021/07/24 09:54:27;;;;;;;10.27;6.45;;;;;;;35.60;32.39;97535.25;5132799;27;20033;-75
2021/07/24 09:56:54;;;;;;;9.05;6.97;;;;;;;36.34;30.91;97531.06;5132554;27;20038;-75
2021/07/24 09:59:29;;;;;;;11.45;6.43;;;;;;;38.17;28.33;97528.13;5133155;27;20033;-76
2021/07/24 10:01:58;;;;;;;7.63;5.72;;;;;;;37.55;27.83;97511.19;5132945;27;20067;-76
2021/07/24 10:04:28;;;;;;;7.90;5.85;;;;;;;38.91;26.51;97504.41;5132884;27;20094;-76
2021/07/24 10:07:00;;;;;;;9.40;6.75;;;;;;;39.51;24.73;97502.78;5132581;27;20023;-75
2021/07/24 10:09:32;;;;;;;13.23;6.25;;;;;;;38.40;25.29;97488.53;5132768;27;20022;-75
2021/07/24 10:12:01;;;;;;;8.27;5.53;;;;;;;39.83;23.92;97486.53;5132679;27;20023;-76
2021/07/24 10:14:27;;;;;;;8.30;5.65;;;;;;;39.52;25.00;97491.31;5115200;27;20135;-76
2021/07/24 10:16:54;;;;;;;8.02;6.35;;;;;;;39.62;23.74;97484.03;5132042;27;20114;-76
2021/07/24 10:19:21;;;;;;;6.82;5.07;;;;;;;40.43;22.24;97484.66;5132454;27;20062;-76
2021/07/24 10:21:47;;;;;;;8.55;4.88;;;;;;;40.16;22.07;97478.59;5132196;27;20019;-78
2021/07/24 10:24:13;;;;;;;5.95;4.95;;;;;;;40.96;21.49;97475.44;5132613;27;20019;-78
2021/07/24 10:26:48;;;;;;;7.97;4.75;;;;;;;39.96;21.47;97459.88;5132470;27;20030;-78
2021/07/24 10:29:25;;;;;;;7.82;4.95;;;;;;;37.60;24.81;97472.13;5133689;27;20454;-77
2021/07/24 10:32:07;;;;;;;6.95;5.78;;;;;;;37.29;25.54;97468.22;5114996;27;20118;-76
2021/07/24 10:34:34;;;;;;;9.07;5.78;;;;;;;35.98;27.12;97466.75;5132134;27;20090;-76
2021/07/24 10:37:00;;;;;;;7.78;5.53;;;;;;;34.91;28.47;97469.78;5131962;27;20598;-76
2021/07/24 10:39:26;;;;;;;14.70;6.18;;;;;;;35.06;28.96;97466.41;5132099;27;20109;-75
2021/07/24 10:42:13;;;;;;;8.77;5.50;;;;;;;32.39;31.75;97470.25;5133154;27;20490;-75
2021/07/24 10:44:42;;;;;;;7.03;5.05;;;;;;;34.64;29.08;97469.53;5131769;27;20096;-76
2021/07/24 10:47:14;;;;;;;9.27;5.20;;;;;;;35.93;27.36;97455.56;5132922;27;20015;-76
2021/07/24 10:49:45;;;;;;;8.90;5.53;;;;;;;36.94;25.71;97458.44;5131171;27;20087;-79
2021/07/24 10:52:11;;;;;;;10.20;5.43;;;;;;;36.09;27.03;97449.09;5131509;27;20034;-80
2021/07/24 10:54:52;;;;;;;18.48;6.00;;;;;;;37.52;26.06;97458.69;5113876;27;20027;-81
2021/07/24 10:57:42;;;;;;;15.33;5.50;;;;;;;37.40;25.12;97442.94;5126554;27;20030;-81
2021/07/24 11:00:31;;;;;;;9.68;6.10;;;;;;;36.01;27.37;97452.31;5127554;27;21093;-81
2021/07/24 11:02:56;;;;;;;10.82;5.85;;;;;;;35.83;27.34;97454.31;5131056;27;20053;-81
2021/07/24 11:05:23;;;;;;;11.45;6.30;;;;;;;37.25;25.42;97444.78;5131235;27;20054;-78
2021/07/24 11:07:48;;;;;;;10.00;5.25;;;;;;;37.26;25.77;97446.44;5131374;27;20084;-79
2021/07/24 11:10:14;;;;;;;8.57;5.57;;;;;;;38.35;24.77;97446.59;5126322;27;20027;-77
2021/07/24 11:12:40;;;;;;;9.15;5.72;;;;;;;37.78;25.92;97440.94;5131295;27;20110;-77
2021/07/24 11:15:38;;;;;;;7.47;5.50;;;;;;;38.19;24.90;97453.22;5131029;27;20058;-77
2021/07/24 11:18:23;;;;;;;10.90;5.47;;;;;;;38.56;23.91;97437.16;5126649;27;20104;-77
2021/07/24 11:20:50;;;;;;;16.17;6.20;;;;;;;37.99;24.19;97445.59;5131091;27;20041;-77
2021/07/24 11:23:15;;;;;;;9.75;5.63;;;;;;;37.25;25.19;97433.63;5132757;27;20027;-77
2021/07/24 11:25:42;;;;;;;9.60;6.15;;;;;;;36.92;25.63;97443.91;5132738;27;20019;-75